Airfield :







YOU CAN JOIN US ON...

 
LOGIN :

Register | Disclaimer

   EN    FR    IT 

 









Legend :    VFR   Marginal VFR   IFR   Intensive IFR   Very Intensive IFR
Visi :
Ceiling :
>= 8 km
>= 3000ft
5 to 8 km
1000 to 3000 ft
1500m to 5 km
500 to 1000 ft
800 to 1500m
200 to 500 ft
< 800m
< 200 ft
Symbols :   Thunderstorms  Fog  Heavy snow  Heavy precipitations  Wind > 20 kt






- Airport Elevation : 40 ft
- IATA code : YRF


CYCA - Cartwright

CURRENT METAR :
  • 171200Z AUTO 18005KT 9SM CLR 06/01 A2999 RMK SLP159

EXPIRED METARs :
  • 171100Z AUTO 20007KT 9SM CLR 05/01 A2999 RMK SLP157
  • 171025Z AUTO 28011G18KT 9SM BKN033 06/01 A2997 RMK WSHFT AT 1011Z SLP152
  • 171000Z AUTO 23005KT 9SM OVC033 05/01 A2997 RMK SLP151

TAF TAF CYCA
Valid from the 17 at 08:00 until the 17 at 20:00 UTC


170738Z 1708/1720 25010G20KT P6SM FEW040
FM171500 23008KT P6SM SCT030 BKN180 RMK FCST BASED ON AUTO OBS. NXT FCST BY 171400Z



MET'MAP, your aeronautical weather chart ! - Copyright ORBIFLY December 2007 - Disclaimer

ORBIFLY MET'MAP TEAM :

Programming & Development : Alexandra Zaïnal
Concept & Development : Baudouin d'Aumeries
Co-Development & Prog : Marc-Olivier Méhu
Technical & hardware support : Manuel Goepfert

Contact : metmap@orbifly.com




SOURCES & CREDITS :

   NOAA